createdAt,value
2023-04-17T00:01:49.371Z,0.82
2023-04-17T00:04:18.413Z,1.00
2023-04-17T00:06:46.939Z,3.28
2023-04-17T00:09:15.212Z,0.73
2023-04-17T00:11:43.489Z,1.20
2023-04-17T00:14:11.863Z,1.95
2023-04-17T00:16:41.567Z,2.55
2023-04-17T00:19:09.973Z,2.78
2023-04-17T00:21:38.449Z,1.17
2023-04-17T00:24:07.197Z,1.10
2023-04-17T00:26:35.490Z,0.90
2023-04-17T00:29:03.845Z,0.93
2023-04-17T00:31:32.414Z,0.98
2023-04-17T00:34:02.351Z,1.73
2023-04-17T00:36:31.969Z,1.15
2023-04-17T00:39:00.630Z,1.13
2023-04-17T00:41:29.081Z,1.33
2023-04-17T00:43:57.372Z,0.77
2023-04-17T00:46:26.000Z,0.93
2023-04-17T00:48:54.468Z,1.48
2023-04-17T00:51:24.122Z,0.82
2023-04-17T00:53:53.192Z,1.13
2023-04-17T00:56:22.204Z,0.55
2023-04-17T00:58:51.101Z,0.40
2023-04-17T01:01:19.345Z,1.48
2023-04-17T01:03:48.159Z,0.80
2023-04-17T01:06:17.160Z,0.95
2023-04-17T01:08:46.800Z,2.75
2023-04-17T01:11:15.162Z,0.85
2023-04-17T01:13:47.371Z,0.82
2023-04-17T01:16:16.387Z,1.20
2023-04-17T01:18:45.051Z,1.50
2023-04-17T01:21:13.322Z,0.95
2023-04-17T01:23:48.788Z,0.88
2023-04-17T01:26:21.194Z,1.73
2023-04-17T01:28:54.380Z,1.45
2023-04-17T01:31:23.349Z,0.90
2023-04-17T01:33:52.889Z,1.27
2023-04-17T01:36:21.543Z,1.52
2023-04-17T01:38:49.796Z,1.48
2023-04-17T01:41:19.479Z,2.22
2023-04-17T01:43:48.759Z,0.80
2023-04-17T01:46:17.067Z,1.63
2023-04-17T01:48:45.393Z,1.90
2023-04-17T01:51:13.734Z,2.33
2023-04-17T01:53:42.212Z,2.40
2023-04-17T01:56:10.531Z,2.47
2023-04-17T01:58:40.378Z,3.22
2023-04-17T02:01:08.726Z,3.30
2023-04-17T02:03:37.104Z,3.08
2023-04-17T02:06:05.663Z,3.90
2023-04-17T02:08:34.538Z,3.13
2023-04-17T02:11:04.984Z,6.10
2023-04-17T02:13:33.398Z,4.47
2023-04-17T02:16:03.117Z,3.33
2023-04-17T02:18:31.617Z,4.40
2023-04-17T02:21:01.825Z,4.82
2023-04-17T02:23:30.343Z,3.35
2023-04-17T02:25:58.712Z,4.25
2023-04-17T02:28:27.027Z,4.25
2023-04-17T02:30:55.336Z,3.97
2023-04-17T02:33:25.142Z,3.45
2023-04-17T02:35:54.038Z,4.00
2023-04-17T02:38:30.055Z,3.83
2023-04-17T02:40:58.546Z,4.68
2023-04-17T02:43:27.871Z,4.68
2023-04-17T02:45:57.227Z,4.15
2023-04-17T02:48:28.589Z,4.50
2023-04-17T02:50:57.193Z,4.55
2023-04-17T02:53:25.597Z,5.03
2023-04-17T02:55:54.208Z,5.70
2023-04-17T02:58:24.954Z,5.07
2023-04-17T03:00:53.459Z,5.40
2023-04-17T03:03:21.964Z,5.38
2023-04-17T03:05:51.792Z,5.25
2023-04-17T03:08:20.726Z,5.22
2023-04-17T03:10:50.876Z,6.67
2023-04-17T03:13:19.222Z,5.38
2023-04-17T03:15:47.763Z,4.68
2023-04-17T03:18:16.193Z,6.25
2023-04-17T03:20:44.447Z,7.18
2023-04-17T03:23:14.136Z,7.55
2023-04-17T03:25:44.209Z,8.23
2023-04-17T03:28:13.084Z,8.23
2023-04-17T03:30:41.400Z,9.77
2023-04-17T03:33:10.568Z,9.50
2023-04-17T03:35:38.819Z,8.90
2023-04-17T03:38:09.958Z,11.75
2023-04-17T03:40:39.727Z,11.65
2023-04-17T03:43:07.963Z,9.45
2023-04-17T03:45:36.514Z,11.75
2023-04-17T03:48:05.936Z,10.68
2023-04-17T03:50:35.147Z,9.75
2023-04-17T03:53:03.432Z,12.48
2023-04-17T03:55:33.140Z,11.35
2023-04-17T03:58:02.812Z,12.90
2023-04-17T04:03:07.933Z,10.63
2023-04-17T04:05:40.902Z,10.25
2023-04-17T04:08:10.815Z,11.48
2023-04-17T04:10:50.212Z,11.77
2023-04-17T04:13:25.486Z,12.18
2023-04-17T04:15:58.239Z,12.90
2023-04-17T04:18:28.939Z,12.93
2023-04-17T04:20:57.194Z,11.80
2023-04-17T04:23:30.616Z,13.27
2023-04-17T04:26:01.795Z,12.65
2023-04-17T04:28:39.441Z,12.07
2023-04-17T04:31:14.709Z,13.00
2023-04-17T04:33:45.173Z,16.65
2023-04-17T04:36:20.236Z,13.30
2023-04-17T04:38:52.389Z,13.23
2023-04-17T04:41:29.918Z,12.73
2023-04-17T04:43:59.944Z,13.60
2023-04-17T04:46:29.047Z,12.60
2023-04-17T04:48:58.278Z,12.77
2023-04-17T04:51:27.784Z,12.25
2023-04-17T04:53:56.712Z,12.77
2023-04-17T04:56:25.714Z,11.90
2023-04-17T04:58:56.399Z,15.35
2023-04-17T05:01:27.995Z,14.35
2023-04-17T05:03:57.760Z,13.13
2023-04-17T05:06:30.178Z,13.18
2023-04-17T05:09:04.427Z,14.13
2023-04-17T05:11:34.443Z,12.75
2023-04-17T05:14:03.188Z,13.43
2023-04-17T05:16:38.201Z,16.20
2023-04-17T05:19:06.679Z,13.30
2023-04-17T05:21:53.974Z,16.95
2023-04-17T05:24:23.150Z,12.77
2023-04-17T05:26:51.778Z,13.50
2023-04-17T05:29:20.175Z,14.23
2023-04-17T05:31:49.942Z,11.52
2023-04-17T05:34:50.351Z,9.57
2023-04-17T05:37:22.291Z,10.77
2023-04-17T05:39:50.654Z,9.40
2023-04-17T05:42:18.980Z,9.10
2023-04-17T05:44:47.696Z,7.82
2023-04-17T05:47:17.571Z,9.02
2023-04-17T05:49:45.931Z,7.95
2023-04-17T05:52:15.063Z,9.48
2023-04-17T05:54:45.923Z,9.03
2023-04-17T05:57:14.397Z,11.07
2023-04-17T05:59:43.219Z,9.55
2023-04-17T06:02:12.584Z,8.27
2023-04-17T06:04:42.563Z,9.85
2023-04-17T06:07:11.854Z,8.93
2023-04-17T06:09:41.133Z,7.40
2023-04-17T06:12:15.802Z,8.05
2023-04-17T06:14:45.581Z,10.75
2023-04-17T06:17:15.659Z,10.18
2023-04-17T06:19:45.576Z,12.15
2023-04-17T06:22:13.888Z,10.75
2023-04-17T06:24:42.066Z,9.38
2023-04-17T06:27:10.588Z,11.95
2023-04-17T06:29:39.000Z,10.32
2023-04-17T06:32:07.657Z,11.00
2023-04-17T06:34:46.098Z,10.30
2023-04-17T06:37:35.434Z,12.48
2023-04-17T06:40:03.930Z,13.40
2023-04-17T06:42:33.987Z,9.75
2023-04-17T06:45:03.860Z,10.13
2023-04-17T06:47:32.169Z,9.52
2023-04-17T06:50:00.930Z,9.45
2023-04-17T06:52:29.266Z,12.25
2023-04-17T06:55:00.679Z,10.38
2023-04-17T06:57:29.196Z,9.57
2023-04-17T06:59:57.405Z,9.77
2023-04-17T07:02:25.784Z,7.70
2023-04-17T07:04:54.961Z,10.52
2023-04-17T07:07:23.453Z,9.70
2023-04-17T07:09:52.039Z,11.52
2023-04-17T07:12:22.745Z,12.00
2023-04-17T07:14:51.271Z,11.40
2023-04-17T07:17:19.776Z,11.23
2023-04-17T07:19:48.061Z,12.82
2023-04-17T07:22:16.343Z,13.07
2023-04-17T07:24:45.303Z,13.43
2023-04-17T07:27:13.610Z,11.88
2023-04-17T07:29:43.433Z,14.88
2023-04-17T07:32:12.701Z,15.02
2023-04-17T07:34:42.142Z,13.05
2023-04-17T07:37:10.568Z,12.30
2023-04-17T07:39:39.097Z,11.63
2023-04-17T07:42:09.125Z,11.38
2023-04-17T07:44:37.514Z,13.85
2023-04-17T07:47:07.194Z,14.13
2023-04-17T07:49:35.618Z,14.25
2023-04-17T07:52:03.944Z,14.60
2023-04-17T07:54:32.513Z,12.73
2023-04-17T07:57:03.551Z,12.52
2023-04-17T07:59:31.885Z,12.75
2023-04-17T08:02:00.236Z,17.92
2023-04-17T08:04:30.257Z,12.38
2023-04-17T08:06:58.655Z,13.02
2023-04-17T08:09:27.025Z,12.48
2023-04-17T08:11:57.966Z,10.82
2023-04-17T08:14:26.711Z,11.55
2023-04-17T08:16:55.285Z,10.30
2023-04-17T08:19:23.569Z,11.43
2023-04-17T08:22:03.725Z,10.18
2023-04-17T08:24:32.516Z,10.85
2023-04-17T08:27:01.552Z,10.50
2023-04-17T08:29:30.043Z,9.50
2023-04-17T08:32:13.126Z,10.82
2023-04-17T08:34:42.730Z,10.82
2023-04-17T08:37:12.276Z,10.07
2023-04-17T08:39:40.551Z,9.27
2023-04-17T08:42:14.623Z,10.00
2023-04-17T08:44:46.097Z,9.88
2023-04-17T08:47:14.665Z,10.27
2023-04-17T08:49:44.097Z,10.73
2023-04-17T08:52:14.550Z,10.98
2023-04-17T08:54:42.909Z,11.13
2023-04-17T08:57:11.216Z,13.57
2023-04-17T08:59:39.486Z,11.48
2023-04-17T09:02:08.731Z,9.88
2023-04-17T09:04:40.883Z,12.77
2023-04-17T09:07:10.629Z,12.90
2023-04-17T09:09:51.462Z,11.82
2023-04-17T09:12:20.868Z,12.97
2023-04-17T09:14:49.438Z,17.35
2023-04-17T09:17:19.176Z,15.63
2023-04-17T09:20:06.541Z,15.02
2023-04-17T09:22:35.590Z,17.45
2023-04-17T09:25:05.872Z,17.45
2023-04-17T09:27:34.138Z,15.52
2023-04-17T09:30:03.837Z,14.45
2023-04-17T09:32:33.364Z,18.42
2023-04-17T09:35:03.827Z,21.27
2023-04-17T09:37:50.664Z,18.73
2023-04-17T09:40:21.491Z,28.75
2023-04-17T09:42:57.394Z,24.50
2023-04-17T09:45:33.153Z,20.90
2023-04-17T09:48:01.659Z,20.80
2023-04-17T09:50:31.272Z,21.55
2023-04-17T09:52:59.529Z,21.15
2023-04-17T09:55:30.217Z,19.52
2023-04-17T09:57:59.857Z,21.20
2023-04-17T10:00:29.400Z,21.13
2023-04-17T10:02:59.754Z,22.77
2023-04-17T10:05:30.149Z,22.92
2023-04-17T10:07:58.886Z,20.63
2023-04-17T10:10:31.136Z,22.42
2023-04-17T10:13:01.633Z,26.75
2023-04-17T10:15:31.583Z,22.33
2023-04-17T10:18:21.420Z,24.23
2023-04-17T10:20:50.757Z,22.67
2023-04-17T10:23:33.834Z,22.80
2023-04-17T10:26:43.524Z,26.13
2023-04-17T10:29:13.704Z,21.65
2023-04-17T10:32:17.475Z,21.95
2023-04-17T10:34:46.257Z,23.63
2023-04-17T10:37:16.187Z,22.05
2023-04-17T10:39:57.796Z,20.38
2023-04-17T10:42:28.014Z,22.17
2023-04-17T10:45:01.862Z,20.33
2023-04-17T10:47:34.735Z,22.80
2023-04-17T10:50:05.496Z,22.10
2023-04-17T10:52:42.018Z,20.73
2023-04-17T10:55:14.267Z,22.05
2023-04-17T10:58:01.118Z,20.38
2023-04-17T11:00:33.513Z,20.38
2023-04-17T11:03:03.914Z,20.30
2023-04-17T11:05:32.782Z,22.27
2023-04-17T11:08:01.131Z,21.30
2023-04-17T11:10:29.707Z,21.55
2023-04-17T11:12:57.933Z,20.27
2023-04-17T11:15:31.574Z,20.77
2023-04-17T11:18:01.106Z,20.35
2023-04-17T11:20:31.360Z,20.10
2023-04-17T11:23:02.336Z,19.55
2023-04-17T11:25:33.695Z,24.63
2023-04-17T11:30:34.811Z,22.23
2023-04-17T11:33:05.223Z,21.98
2023-04-17T11:35:34.613Z,22.10
2023-04-17T11:38:14.392Z,20.98
2023-04-17T11:40:47.305Z,22.63
2023-04-17T11:43:16.349Z,24.45
2023-04-17T11:45:47.765Z,24.50
2023-04-17T11:48:19.663Z,23.10
2023-04-17T11:50:47.896Z,23.00
2023-04-17T11:53:17.185Z,23.42
2023-04-17T11:55:46.176Z,22.95
2023-04-17T11:58:15.362Z,22.55
2023-04-17T12:01:04.810Z,19.95
2023-04-17T12:03:35.532Z,22.80
2023-04-17T12:06:05.407Z,21.83
2023-04-17T12:08:44.053Z,21.00
2023-04-17T12:11:18.069Z,22.48
2023-04-17T12:13:47.298Z,19.48
2023-04-17T12:16:17.078Z,22.48
2023-04-17T12:18:45.930Z,22.35
2023-04-17T12:21:14.291Z,19.17
2023-04-17T12:23:43.076Z,21.00
2023-04-17T12:26:11.653Z,19.45
2023-04-17T12:28:40.022Z,19.98
2023-04-17T12:31:08.501Z,21.50
2023-04-17T12:33:38.319Z,21.58
2023-04-17T12:36:07.675Z,19.35
2023-04-17T12:38:36.119Z,20.55
2023-04-17T12:41:06.750Z,20.83
2023-04-17T12:43:35.316Z,20.10
2023-04-17T12:46:04.277Z,18.42
2023-04-17T12:48:33.124Z,21.08
2023-04-17T12:51:02.866Z,20.02
2023-04-17T12:53:31.191Z,17.85
2023-04-17T12:55:59.396Z,20.25
2023-04-17T12:58:27.676Z,16.95
2023-04-17T13:00:56.041Z,19.02
2023-04-17T13:03:24.433Z,18.40
2023-04-17T13:05:53.592Z,18.38
2023-04-17T13:08:23.344Z,20.40
2023-04-17T13:10:51.667Z,26.80
2023-04-17T13:13:19.964Z,23.35
2023-04-17T13:15:49.357Z,128.43
2023-04-17T13:18:17.705Z,233.55
2023-04-17T13:20:45.922Z,291.05
2023-04-17T13:23:14.545Z,329.83
2023-04-17T13:25:44.240Z,352.20
2023-04-17T13:28:12.491Z,230.95
2023-04-17T13:30:40.834Z,200.43
2023-04-17T13:33:09.265Z,251.13
2023-04-17T13:35:37.766Z,173.68
2023-04-17T13:38:06.143Z,272.35
2023-04-17T13:40:34.349Z,277.63
2023-04-17T13:43:05.983Z,298.23
2023-04-17T13:48:02.595Z,206.65
2023-04-17T13:50:31.445Z,217.50
2023-04-17T13:52:59.739Z,198.48
2023-04-17T13:55:28.098Z,154.18
2023-04-17T13:57:56.383Z,146.38
2023-04-17T14:00:26.062Z,99.85
2023-04-17T14:02:54.683Z,87.13
2023-04-17T14:05:23.269Z,86.47
2023-04-17T14:07:51.532Z,72.22
2023-04-17T14:10:19.802Z,64.15
2023-04-17T14:12:48.067Z,49.65
2023-04-17T14:15:16.350Z,58.83
2023-04-17T14:17:46.177Z,53.90
2023-04-17T14:20:16.758Z,40.42
2023-04-17T14:22:45.574Z,29.27
2023-04-17T14:25:13.830Z,38.00
2023-04-17T14:27:42.354Z,31.40
2023-04-17T14:30:11.245Z,37.15
2023-04-17T14:32:39.925Z,35.38
2023-04-17T14:35:10.536Z,32.28
2023-04-17T14:37:38.929Z,30.20
2023-04-17T14:40:09.034Z,26.88
2023-04-17T14:42:47.387Z,25.02
2023-04-17T14:45:21.731Z,25.10
2023-04-17T14:47:50.125Z,25.58
2023-04-17T14:50:19.921Z,19.77
2023-04-17T14:52:48.293Z,19.77
2023-04-17T14:55:16.670Z,18.25
2023-04-17T14:57:45.091Z,21.65
2023-04-17T15:00:14.398Z,17.40
2023-04-17T15:02:42.824Z,19.80
2023-04-17T15:05:11.582Z,17.13
2023-04-17T15:07:41.157Z,18.20
2023-04-17T15:10:10.200Z,15.90
2023-04-17T15:12:38.447Z,16.27
2023-04-17T15:15:09.367Z,13.82
2023-04-17T15:17:38.304Z,13.82
2023-04-17T15:20:07.881Z,12.02
2023-04-17T15:22:36.277Z,10.90
2023-04-17T15:25:06.768Z,12.25
2023-04-17T15:27:35.086Z,11.80
2023-04-17T15:30:04.975Z,10.07
2023-04-17T15:32:33.509Z,8.55
2023-04-17T15:35:01.899Z,9.45
2023-04-17T15:37:30.488Z,8.68
2023-04-17T15:39:58.794Z,8.90
2023-04-17T15:42:28.481Z,8.20
2023-04-17T15:44:57.626Z,9.43
2023-04-17T15:47:25.892Z,7.15
2023-04-17T15:49:54.163Z,7.28
2023-04-17T15:52:22.442Z,7.13
2023-04-17T15:54:50.697Z,8.48
2023-04-17T15:57:18.902Z,8.45
2023-04-17T15:59:48.836Z,7.00
2023-04-17T16:02:17.326Z,7.45
2023-04-17T16:04:45.818Z,8.38
2023-04-17T16:07:14.233Z,6.93
2023-04-17T16:09:44.637Z,7.50
2023-04-17T16:12:13.216Z,8.50
2023-04-17T16:14:41.427Z,8.45
2023-04-17T16:17:11.023Z,7.45
2023-04-17T16:19:39.284Z,8.02
2023-04-17T16:22:07.488Z,7.68
2023-04-17T16:24:35.818Z,6.60
2023-04-17T16:27:04.389Z,8.13
2023-04-17T16:29:32.630Z,8.57
2023-04-17T16:32:00.910Z,7.65
2023-04-17T16:34:30.621Z,7.97
2023-04-17T16:36:58.820Z,7.95
2023-04-17T16:39:27.110Z,6.85
2023-04-17T16:41:56.267Z,7.43
2023-04-17T16:44:25.901Z,6.97
2023-04-17T16:47:12.102Z,7.32
2023-04-17T16:49:43.423Z,6.32
2023-04-17T16:52:11.775Z,6.20
2023-04-17T16:54:40.048Z,7.97
2023-04-17T16:57:08.631Z,6.53
2023-04-17T16:59:36.906Z,7.00
2023-04-17T17:02:05.243Z,6.35
2023-04-17T17:04:33.744Z,6.97
2023-04-17T17:07:03.489Z,6.22
2023-04-17T17:09:31.761Z,8.43
2023-04-17T17:12:00.797Z,10.10
2023-04-17T17:14:29.150Z,9.27
2023-04-17T17:16:57.471Z,8.23
2023-04-17T17:19:25.801Z,11.88
2023-04-17T17:21:55.203Z,13.68
2023-04-17T17:24:24.907Z,13.63
2023-04-17T17:26:53.213Z,15.15
2023-04-17T17:29:21.476Z,11.63
2023-04-17T17:31:49.733Z,11.27
2023-04-17T17:34:25.947Z,10.55
2023-04-17T17:36:54.756Z,12.68
2023-04-17T17:39:24.466Z,10.55
2023-04-17T17:41:52.750Z,12.02
2023-04-17T17:44:21.030Z,10.98
2023-04-17T17:46:49.264Z,10.25
2023-04-17T17:49:17.498Z,12.23
2023-04-17T17:51:45.794Z,10.15
2023-04-17T17:54:14.265Z,10.82
2023-04-17T17:56:44.095Z,9.35
2023-04-17T17:59:12.776Z,8.75
2023-04-17T18:01:41.382Z,9.63
2023-04-17T18:04:10.131Z,9.38
2023-04-17T18:06:39.547Z,10.82
2023-04-17T18:09:07.871Z,10.05
2023-04-17T18:11:37.388Z,8.68
2023-04-17T18:14:07.063Z,10.30
2023-04-17T18:16:37.184Z,10.85
2023-04-17T18:19:05.449Z,9.20
2023-04-17T18:21:33.951Z,10.23
2023-04-17T18:24:03.000Z,9.38
2023-04-17T18:26:31.395Z,8.85
2023-04-17T18:28:59.707Z,9.30
2023-04-17T18:31:29.306Z,9.15
2023-04-17T18:34:02.192Z,8.05
2023-04-17T18:36:30.886Z,9.07
2023-04-17T18:38:59.090Z,11.75
2023-04-17T18:41:27.761Z,12.50
2023-04-17T18:43:55.996Z,12.68
2023-04-17T18:46:26.242Z,13.57
2023-04-17T18:48:56.259Z,12.25
2023-04-17T18:51:24.655Z,12.38
2023-04-17T18:53:52.905Z,12.90
2023-04-17T18:56:21.207Z,12.02
2023-04-17T18:58:49.465Z,12.07
2023-04-17T19:01:17.759Z,11.25
2023-04-17T19:03:46.168Z,11.00
2023-04-17T19:06:15.806Z,10.75
2023-04-17T19:08:44.067Z,9.63
2023-04-17T19:11:12.431Z,10.27
2023-04-17T19:13:42.375Z,10.50
2023-04-17T19:16:11.377Z,11.07
2023-04-17T19:18:39.688Z,9.48
2023-04-17T19:21:08.030Z,13.25
2023-04-17T19:23:38.012Z,8.63
2023-04-17T19:26:06.307Z,8.88
2023-04-17T19:28:34.489Z,9.48
2023-04-17T19:31:04.042Z,9.52
2023-04-17T19:33:34.028Z,9.23
2023-04-17T19:36:03.393Z,9.38
2023-04-17T19:38:32.341Z,8.63
2023-04-17T19:41:17.469Z,103.90
2023-04-17T19:43:46.332Z,191.05
2023-04-17T19:46:15.344Z,207.93
2023-04-17T19:48:44.806Z,198.00
2023-04-17T19:51:14.204Z,144.60
2023-04-17T19:53:44.062Z,209.07
2023-04-17T19:56:13.941Z,225.73
2023-04-17T19:58:43.297Z,207.43
2023-04-17T20:01:11.795Z,135.98
2023-04-17T20:03:42.237Z,113.50
2023-04-17T20:06:10.921Z,84.43
2023-04-17T20:08:39.202Z,63.70
2023-04-17T20:11:07.609Z,120.75
2023-04-17T20:13:37.302Z,175.23
2023-04-17T20:16:06.051Z,196.85
2023-04-17T20:18:35.019Z,223.88
2023-04-17T20:21:03.326Z,152.27
2023-04-17T20:23:31.626Z,148.93
2023-04-17T20:25:59.852Z,125.03
2023-04-17T20:28:29.204Z,105.18
2023-04-17T20:30:58.885Z,267.52
2023-04-17T20:33:27.327Z,260.83
2023-04-17T20:35:55.765Z,325.35
2023-04-17T20:38:24.282Z,241.27
2023-04-17T20:40:52.661Z,273.70
2023-04-17T20:43:21.011Z,228.00
2023-04-17T20:45:49.665Z,176.75
2023-04-17T20:48:19.884Z,333.65
2023-04-17T20:50:48.207Z,241.07
2023-04-17T20:53:16.438Z,144.68
2023-04-17T20:55:46.847Z,119.13
2023-04-17T20:58:15.062Z,96.07
2023-04-17T21:00:57.920Z,85.90
2023-04-17T21:03:31.265Z,73.22
2023-04-17T21:05:59.658Z,66.73
2023-04-17T21:08:27.923Z,53.92
2023-04-17T21:10:56.271Z,47.00
2023-04-17T21:13:24.720Z,46.60
2023-04-17T21:15:53.178Z,42.15
2023-04-17T21:18:21.519Z,36.85
2023-04-17T21:20:51.208Z,28.65
2023-04-17T21:23:19.645Z,27.95
2023-04-17T21:25:48.233Z,27.15
2023-04-17T21:28:16.487Z,26.45
2023-04-17T21:30:44.734Z,20.92
2023-04-17T21:33:13.158Z,19.60
2023-04-17T21:35:41.463Z,19.88
2023-04-17T21:38:11.350Z,18.50
2023-04-17T21:40:50.542Z,17.83
2023-04-17T21:43:20.072Z,16.30
2023-04-17T21:45:48.517Z,14.30
2023-04-17T21:48:16.987Z,14.07
2023-04-17T21:50:45.196Z,14.57
2023-04-17T21:53:14.800Z,11.75
2023-04-17T21:55:43.079Z,10.57
2023-04-17T21:58:11.421Z,12.63
2023-04-17T22:00:39.696Z,11.35
2023-04-17T22:03:08.075Z,12.05
2023-04-17T22:05:37.072Z,9.40
2023-04-17T22:08:05.303Z,10.68
2023-04-17T22:10:35.538Z,9.95
2023-04-17T22:13:03.850Z,9.48
2023-04-17T22:15:32.085Z,9.30
2023-04-17T22:18:00.403Z,9.55
2023-04-17T22:20:29.008Z,9.00
2023-04-17T22:22:57.235Z,7.20
2023-04-17T22:25:25.572Z,8.88
2023-04-17T22:27:55.188Z,8.63
2023-04-17T22:30:23.610Z,7.05
2023-04-17T22:32:52.049Z,7.55
2023-04-17T22:35:20.300Z,8.75
2023-04-17T22:37:48.493Z,6.88
2023-04-17T22:40:16.895Z,7.72
2023-04-17T22:42:45.140Z,7.55
2023-04-17T22:45:14.759Z,7.05
2023-04-17T22:47:43.276Z,7.20
2023-04-17T22:50:14.322Z,7.38
2023-04-17T22:52:42.783Z,6.93
2023-04-17T22:55:11.529Z,7.38
2023-04-17T22:57:39.776Z,7.82
2023-04-17T23:00:10.841Z,7.28
2023-04-17T23:02:40.622Z,7.05
2023-04-17T23:05:10.082Z,6.32
2023-04-17T23:07:38.387Z,6.65
2023-04-17T23:10:07.308Z,7.50
2023-04-17T23:12:35.603Z,7.18
2023-04-17T23:15:04.311Z,8.65
2023-04-17T23:17:33.144Z,7.85
2023-04-17T23:20:04.131Z,7.10
2023-04-17T23:22:32.489Z,7.25
2023-04-17T23:25:00.784Z,8.25
2023-04-17T23:27:29.082Z,6.65
2023-04-17T23:29:59.091Z,6.50
2023-04-17T23:32:27.655Z,7.25
2023-04-17T23:34:55.961Z,7.05
2023-04-17T23:37:25.603Z,8.07
2023-04-17T23:39:53.830Z,7.38
2023-04-17T23:42:22.094Z,7.88
2023-04-17T23:44:50.299Z,8.90
2023-04-17T23:47:18.573Z,7.15
2023-04-17T23:49:47.465Z,8.82
2023-04-17T23:52:15.704Z,8.68
2023-04-17T23:54:45.392Z,8.40
2023-04-17T23:57:13.610Z,8.10
2023-04-17T23:59:41.867Z,9.77
